Time;durP1;ratioP1;P1;durP2;ratioP2;P2;SDS_P1;SDS_P2;PMS_P1;PMS_P2;Temp;Humidity;BMP_temperature;BMP_pressure;BME280_temperature;BME280_humidity;BME280_pressure;Samples;Min_cycle;Max_cycle;Signal;HPM_P1;HPM_P2
2023/09/17 00:01:53;;;;;;;43.30;32.00;;;;;19.10;100720.00;;;;10040112;29;20707;-78
2023/09/17 00:06:54;;;;;;;46.55;35.28;;;;;19.10;100721.00;;;;10051761;29;20679;-77
2023/09/17 00:11:56;;;;;;;41.35;34.40;;;;;19.10;100708.00;;;;10028300;29;20615;-78
2023/09/17 00:16:58;;;;;;;45.38;36.35;;;;;19.10;100718.00;;;;10061822;29;20256;-77
2023/09/17 00:22:00;;;;;;;43.95;35.38;;;;;19.10;100744.00;;;;10042478;29;20238;-77
2023/09/17 00:27:02;;;;;;;41.03;33.38;;;;;19.00;100731.00;;;;10052838;29;20227;-77
2023/09/17 00:32:03;;;;;;;42.13;33.78;;;;;19.00;100737.00;;;;10047117;29;20216;-78
2023/09/17 00:37:07;;;;;;;47.83;33.53;;;;;19.00;100725.00;;;;10063721;29;20203;-79
2023/09/17 00:42:09;;;;;;;39.70;31.60;;;;;18.90;100720.00;;;;10029788;29;20220;-78
2023/09/17 00:47:10;;;;;;;36.50;28.92;;;;;18.90;100715.00;;;;10012827;29;20492;-79
2023/09/17 00:52:18;;;;;;;32.08;26.27;;;;;18.80;100720.00;;;;10039798;29;20216;-80
2023/09/17 00:57:21;;;;;;;35.35;27.50;;;;;18.70;100706.00;;;;10049723;29;20272;-79
2023/09/17 01:02:25;;;;;;;35.10;26.77;;;;;18.70;100694.00;;;;10026581;29;20278;-79
2023/09/17 01:07:27;;;;;;;36.28;26.77;;;;;18.70;100697.00;;;;10029243;29;20220;-79
2023/09/17 01:12:29;;;;;;;32.13;26.00;;;;;18.70;100692.00;;;;10057072;29;20427;-78
2023/09/17 01:17:30;;;;;;;35.05;25.75;;;;;18.70;100699.00;;;;10046747;29;20392;-77
2023/09/17 01:22:44;;;;;;;30.73;25.17;;;;;18.70;100703.00;;;;10056915;29;20209;-77
2023/09/17 01:27:45;;;;;;;34.03;26.45;;;;;18.70;100690.00;;;;10040339;29;20561;-78
2023/09/17 01:32:47;;;;;;;36.45;25.63;;;;;18.70;100687.00;;;;10047534;29;20240;-78
2023/09/17 01:37:54;;;;;;;37.97;29.17;;;;;18.80;100688.00;;;;10057608;29;20881;-80
2023/09/17 01:42:56;;;;;;;41.90;30.05;;;;;18.80;100684.00;;;;10033192;29;20239;-78
2023/09/17 01:48:30;;;;;;;47.07;34.27;;;;;18.80;100689.00;;;;10136115;23;20205;31
2023/09/17 01:53:32;;;;;;;55.42;35.97;;;;;18.80;100686.00;;;;10074900;29;20264;-82
2023/09/17 01:58:33;;;;;;;54.78;38.40;;;;;18.80;100690.00;;;;10063671;29;20232;-81
2023/09/17 02:03:35;;;;;;;64.05;43.28;;;;;18.80;100686.00;;;;10046802;29;20221;-83
2023/09/17 02:08:37;;;;;;;63.92;43.70;;;;;18.70;100692.00;;;;9997324;29;20233;-85
2023/09/17 02:13:38;;;;;;;63.80;46.42;;;;;18.80;100687.00;;;;10006040;29;20209;-86
2023/09/17 02:18:40;;;;;;;70.20;47.50;;;;;18.70;100691.00;;;;10001614;29;20209;-86
2023/09/17 02:23:44;;;;;;;79.03;49.97;;;;;18.70;100677.00;;;;10013317;29;20217;-87
2023/09/17 02:28:45;;;;;;;67.38;47.05;;;;;18.70;100686.00;;;;9991667;29;20332;-85
2023/09/17 02:33:48;;;;;;;68.60;48.13;;;;;18.70;100675.00;;;;10002462;29;20209;-86
2023/09/17 02:38:50;;;;;;;63.28;47.60;;;;;18.60;100682.00;;;;10023424;29;20633;-86
2023/09/17 02:43:52;;;;;;;70.13;49.80;;;;;18.50;100685.00;;;;9991310;29;20217;-84
2023/09/17 02:48:56;;;;;;;64.25;47.75;;;;;18.50;100679.00;;;;10018472;29;20261;-83
2023/09/17 02:53:57;;;;;;;67.60;49.08;;;;;18.50;100672.00;;;;10024910;29;20217;-87
2023/09/17 02:58:58;;;;;;;65.13;50.05;;;;;18.50;100664.00;;;;10005820;29;20217;-76
2023/09/17 03:04:00;;;;;;;63.10;48.83;;;;;18.40;100669.00;;;;9992676;29;20300;-76
2023/09/17 03:09:01;;;;;;;72.82;49.92;;;;;18.50;100664.00;;;;9992619;29;20648;-76
2023/09/17 03:14:03;;;;;;;70.93;49.63;;;;;18.50;100658.00;;;;10002395;29;20221;-75
2023/09/17 03:19:04;;;;;;;70.18;50.38;;;;;18.40;100650.00;;;;9978483;29;20681;-76
2023/09/17 03:24:09;;;;;;;69.13;50.88;;;;;18.50;100661.00;;;;10016861;29;20277;-75
2023/09/17 03:29:12;;;;;;;72.93;50.97;;;;;18.40;100647.00;;;;9990830;29;20226;-76
2023/09/17 03:34:14;;;;;;;79.13;53.78;;;;;18.40;100648.00;;;;9992705;29;20221;-76
2023/09/17 03:39:16;;;;;;;75.60;52.47;;;;;18.40;100643.00;;;;10001720;29;20217;-76
2023/09/17 03:44:18;;;;;;;83.22;54.03;;;;;18.40;100633.00;;;;9999829;29;20221;-76
2023/09/17 03:49:23;;;;;;;152.82;56.58;;;;;18.50;100636.00;;;;9999505;29;20233;-75
2023/09/17 03:54:26;;;;;;;83.10;56.35;;;;;18.50;100644.00;;;;9987826;29;20853;-75
2023/09/17 03:59:28;;;;;;;87.80;57.20;;;;;18.50;100641.00;;;;9995281;29;20226;-77
2023/09/17 04:04:29;;;;;;;81.15;54.78;;;;;18.50;100627.00;;;;10004855;29;20307;-75
2023/09/17 04:09:31;;;;;;;81.93;54.25;;;;;18.40;100621.00;;;;9987372;29;20231;-78
2023/09/17 04:14:32;;;;;;;87.22;55.08;;;;;18.40;100626.00;;;;10005413;29;20641;-77
2023/09/17 04:19:34;;;;;;;82.40;55.83;;;;;18.40;100625.00;;;;9991619;29;20237;-79
2023/09/17 04:24:38;;;;;;;108.88;56.50;;;;;18.40;100629.00;;;;10017847;29;20210;-79
2023/09/17 04:29:39;;;;;;;90.82;57.65;;;;;18.40;100628.00;;;;10001512;29;20234;-80
2023/09/17 04:34:40;;;;;;;83.90;56.05;;;;;18.40;100628.00;;;;10020147;29;20213;-79
2023/09/17 04:39:42;;;;;;;97.35;59.33;;;;;18.40;100622.00;;;;9998464;29;20300;-78
2023/09/17 04:44:44;;;;;;;84.05;57.00;;;;;18.30;100627.00;;;;9983592;29;20237;-79
2023/09/17 04:49:46;;;;;;;90.22;59.15;;;;;18.30;100624.00;;;;9960649;29;20777;-79
2023/09/17 04:54:48;;;;;;;152.05;59.60;;;;;18.30;100628.00;;;;10006855;29;20300;-78
2023/09/17 04:59:50;;;;;;;90.95;57.88;;;;;18.30;100634.00;;;;9996785;29;20217;-79
2023/09/17 05:04:53;;;;;;;87.65;57.15;;;;;18.30;100634.00;;;;9991835;29;20217;-78
2023/09/17 05:09:54;;;;;;;87.97;56.55;;;;;18.30;100644.00;;;;10030963;29;20221;-78
2023/09/17 05:14:56;;;;;;;91.80;58.28;;;;;18.30;100641.00;;;;10016512;29;20217;-80
2023/09/17 05:19:58;;;;;;;89.28;59.15;;;;;18.30;100636.00;;;;9991587;29;20210;-82
2023/09/17 05:24:59;;;;;;;90.88;57.95;;;;;18.30;100641.00;;;;9997159;29;20236;-82
2023/09/17 05:30:01;;;;;;;93.30;59.35;;;;;18.30;100649.00;;;;9975854;29;20592;-81
2023/09/17 05:35:04;;;;;;;87.93;58.63;;;;;18.40;100653.00;;;;9987207;29;20209;-81
2023/09/17 05:40:06;;;;;;;101.45;59.08;;;;;18.40;100660.00;;;;9984709;29;20233;-82
2023/09/17 05:45:08;;;;;;;88.07;57.10;;;;;18.50;100658.00;;;;10004647;29;20552;-82
2023/09/17 05:50:10;;;;;;;93.78;59.58;;;;;18.50;100658.00;;;;9991317;29;20315;-82
2023/09/17 05:55:12;;;;;;;93.78;59.50;;;;;18.60;100649.00;;;;9997593;29;20264;-82
2023/09/17 06:00:14;;;;;;;92.95;59.05;;;;;18.70;100647.00;;;;10002743;29;20229;-80
2023/09/17 06:05:16;;;;;;;95.13;57.95;;;;;18.70;100647.00;;;;10009823;29;20209;-81
2023/09/17 06:10:18;;;;;;;94.57;56.97;;;;;18.70;100652.00;;;;9994305;29;20805;-81
2023/09/17 06:15:19;;;;;;;93.00;59.38;;;;;18.80;100654.00;;;;10001764;29;20213;-81
2023/09/17 06:20:21;;;;;;;115.38;61.63;;;;;18.90;100647.00;;;;9992369;29;20300;-82
2023/09/17 06:25:23;;;;;;;98.15;58.30;;;;;18.80;100659.00;;;;9995941;29;20232;-81
2023/09/17 06:30:25;;;;;;;92.68;58.30;;;;;18.80;100665.00;;;;9974543;29;20772;-77
2023/09/17 06:35:26;;;;;;;103.53;58.38;;;;;18.80;100667.00;;;;10006631;29;20222;-77
2023/09/17 06:40:28;;;;;;;101.13;61.83;;;;;18.80;100663.00;;;;10000337;29;20210;-76
2023/09/17 06:45:30;;;;;;;101.30;58.67;;;;;18.90;100660.00;;;;9996453;29;20755;-76
2023/09/17 06:50:31;;;;;;;109.90;62.45;;;;;19.20;100668.00;;;;10011162;29;20233;-76
2023/09/17 06:55:34;;;;;;;113.68;62.75;;;;;19.50;100666.00;;;;9987359;29;20205;-76
2023/09/17 07:00:35;;;;;;;95.55;58.03;;;;;19.40;100674.00;;;;9997692;29;20217;-76
2023/09/17 07:05:37;;;;;;;131.13;57.03;;;;;19.30;100670.00;;;;10013795;29;20231;-76
2023/09/17 07:10:38;;;;;;;99.63;57.33;;;;;19.30;100681.00;;;;9995449;29;20765;-79
2023/09/17 07:15:40;;;;;;;107.07;56.08;;;;;19.20;100678.00;;;;10006779;29;20217;-76
2023/09/17 07:20:41;;;;;;;95.47;57.75;;;;;19.30;100681.00;;;;10003803;29;20214;-76
2023/09/17 07:25:44;;;;;;;91.88;48.45;;;;;19.30;100682.00;;;;9978169;29;20828;-77
2023/09/17 07:30:46;;;;;;;72.82;45.55;;;;;19.40;100671.00;;;;9976887;29;20229;-77
2023/09/17 07:35:48;;;;;;;71.45;34.65;;;;;19.50;100681.00;;;;10010257;29;20282;-78
2023/09/17 07:40:49;;;;;;;43.80;27.95;;;;;19.80;100682.00;;;;9971775;29;20225;-81
2023/09/17 07:45:51;;;;;;;37.28;26.00;;;;;20.00;100683.00;;;;10012326;29;20224;-81
2023/09/17 07:50:59;;;;;;;35.40;24.50;;;;;19.80;100689.00;;;;10001184;29;20758;-81
2023/09/17 07:56:01;;;;;;;40.20;26.27;;;;;20.00;100693.00;;;;9999531;29;20213;-82
2023/09/17 08:01:05;;;;;;;37.83;24.35;;;;;20.20;100699.00;;;;9995707;29;20434;-81
2023/09/17 08:06:07;;;;;;;34.05;23.42;;;;;20.30;100703.00;;;;9993023;29;20210;-81
2023/09/17 08:11:08;;;;;;;35.58;23.60;;;;;20.40;100704.00;;;;10006617;29;20397;-81
2023/09/17 08:16:09;;;;;;;40.47;23.23;;;;;20.50;100707.00;;;;9991271;29;20221;-81
2023/09/17 08:21:12;;;;;;;37.88;22.27;;;;;20.50;100723.00;;;;10018191;29;20245;-81
2023/09/17 08:26:32;;;;;;;26.35;18.52;;;;;20.30;100731.00;;;;10012620;29;20766;-82
2023/09/17 08:31:49;;;;;;;18.63;14.52;;;;;20.30;100717.00;;;;9988446;29;20228;-81
2023/09/17 08:37:10;;;;;;;20.13;15.77;;;;;20.60;100722.00;;;;9985030;29;20781;-81
2023/09/17 08:42:13;;;;;;;20.25;15.18;;;;;20.50;100714.00;;;;10008025;29;20225;-82
2023/09/17 08:47:14;;;;;;;22.95;15.77;;;;;20.50;100715.00;;;;10001908;29;20432;-81
2023/09/17 08:52:19;;;;;;;24.60;16.85;;;;;20.50;100713.00;;;;9991396;29;20275;-77
2023/09/17 08:57:25;;;;;;;23.33;16.58;;;;;20.60;100708.00;;;;10019191;29;20224;-77
2023/09/17 09:02:32;;;;;;;22.73;16.00;;;;;20.50;100707.00;;;;10018030;29;20422;-78
2023/09/17 09:07:35;;;;;;;20.27;16.02;;;;;20.60;100717.00;;;;9990472;29;20810;-77
2023/09/17 09:12:37;;;;;;;21.67;16.45;;;;;20.60;100718.00;;;;10020397;29;20229;-78
2023/09/17 09:17:39;;;;;;;28.50;17.88;;;;;21.10;100725.00;;;;10012265;29;20210;-77
2023/09/17 09:22:45;;;;;;;22.52;16.70;;;;;21.50;100729.00;;;;10001797;29;20304;-78
2023/09/17 09:27:46;;;;;;;21.88;15.05;;;;;21.80;100719.00;;;;9991610;29;20297;-79
2023/09/17 09:32:48;;;;;;;19.52;15.07;;;;;21.90;100717.00;;;;10015222;29;20228;-77
2023/09/17 09:37:53;;;;;;;19.55;15.38;;;;;22.00;100719.00;;;;9984198;29;20224;-77
2023/09/17 09:42:54;;;;;;;18.30;14.52;;;;;22.10;100730.00;;;;9988075;29;20218;-78
2023/09/17 09:47:57;;;;;;;17.65;12.93;;;;;22.00;100727.00;;;;9996604;29;20270;-78
2023/09/17 09:52:59;;;;;;;22.92;17.38;;;;;21.90;100721.00;;;;9983353;29;20241;-79
2023/09/17 09:58:00;;;;;;;26.52;19.20;;;;;22.50;100720.00;;;;9997301;29;20280;-78
2023/09/17 10:03:02;;;;;;;31.08;21.88;;;;;23.00;100711.00;;;;9997552;29;20237;-79
2023/09/17 10:08:07;;;;;;;27.45;19.42;;;;;22.90;100701.00;;;;9994123;29;20220;-78
2023/09/17 10:13:10;;;;;;;25.55;18.00;;;;;23.40;100694.00;;;;10007583;29;20260;-78
2023/09/17 10:18:13;;;;;;;21.85;16.35;;;;;24.90;100684.00;;;;10011358;29;20218;-79
2023/09/17 10:23:16;;;;;;;22.65;15.82;;;;;26.70;100694.00;;;;10002817;29;20216;-79
2023/09/17 10:28:18;;;;;;;17.73;13.38;;;;;27.30;100703.00;;;;10005444;29;20371;-79
2023/09/17 10:33:21;;;;;;;13.25;11.85;;;;;26.90;100698.00;;;;9999183;29;20410;-79
2023/09/17 10:38:26;;;;;;;13.90;11.70;;;;;27.50;100704.00;;;;10013644;29;20301;-79
2023/09/17 10:43:28;;;;;;;12.73;11.00;;;;;28.10;100706.00;;;;9986302;29;20229;-79
2023/09/17 10:48:31;;;;;;;10.82;9.68;;;;;28.20;100708.00;;;;9989926;29;20221;-79
2023/09/17 10:53:32;;;;;;;13.30;9.85;;;;;28.80;100701.00;;;;10019139;29;20548;-78
2023/09/17 10:58:38;;;;;;;12.57;10.10;;;;;29.40;100698.00;;;;10012957;29;20269;-79
2023/09/17 11:03:52;;;;;;;10.85;9.80;;;;;29.50;100706.00;;;;10004778;29;20216;-78
2023/09/17 11:08:56;;;;;;;10.30;8.93;;;;;28.20;100690.00;;;;9988439;29;20706;-82
2023/09/17 11:13:57;;;;;;;12.18;8.00;;;;;28.60;100696.00;;;;10018077;29;20205;-81
2023/09/17 11:19:19;;;;;;;10.23;8.73;;;;;28.10;100714.00;;;;9997374;29;20324;-81
2023/09/17 11:24:20;;;;;;;13.05;8.00;;;;;27.20;100714.00;;;;9989867;29;20217;-81
2023/09/17 11:29:41;;;;;;;9.48;8.57;;;;;26.60;100714.00;;;;10004273;29;20348;-81
2023/09/17 11:34:44;;;;;;;10.00;6.57;;;;;26.80;100708.00;;;;9992970;29;20560;-81
2023/09/17 11:39:52;;;;;;;8.15;5.88;;;;;26.70;100701.00;;;;10010276;29;20214;-79
2023/09/17 11:44:55;;;;;;;7.38;6.25;;;;;27.30;100710.00;;;;9979928;29;20245;-80
2023/09/17 11:49:56;;;;;;;10.52;5.97;;;;;27.30;100702.00;;;;9999183;29;20244;-81
2023/09/17 11:55:06;;;;;;;5.90;5.40;;;;;26.50;100694.00;;;;10008632;29;20228;-80
2023/09/17 12:00:25;;;;;;;6.03;5.05;;;;;26.00;100708.00;;;;10001198;29;20252;-82
2023/09/17 12:05:27;;;;;;;6.50;5.13;;;;;26.30;100703.00;;;;9990330;29;20232;-81
2023/09/17 12:10:30;;;;;;;6.35;5.50;;;;;26.90;100691.00;;;;9973315;29;20298;-79
2023/09/17 12:15:32;;;;;;;6.20;4.60;;;;;27.30;100686.00;;;;9911776;29;20217;-80
2023/09/17 12:21:10;;;;;;;7.50;5.05;;;;;28.00;100684.00;;;;9902581;29;20221;-80
2023/09/17 12:26:04;;;;;;;6.90;5.20;;;;;28.20;100680.00;;;;9929363;29;20222;-81
2023/09/17 12:31:05;;;;;;;7.03;4.90;;;;;28.10;100668.00;;;;9923057;29;20249;-80
2023/09/17 12:36:07;;;;;;;5.82;5.22;;;;;28.10;100669.00;;;;9939459;29;20257;-81
2023/09/17 12:41:10;;;;;;;5.55;5.03;;;;;27.80;100661.00;;;;9916234;29;20296;-81
2023/09/17 12:46:13;;;;;;;6.25;4.95;;;;;27.40;100651.00;;;;9917672;29;20322;-81
2023/09/17 12:51:15;;;;;;;6.95;4.63;;;;;27.20;100648.00;;;;9911439;29;20225;-80
2023/09/17 12:56:16;;;;;;;5.05;4.65;;;;;27.20;100642.00;;;;9943983;29;20813;-80
2023/09/17 13:01:18;;;;;;;5.20;4.53;;;;;27.20;100631.00;;;;9923662;29;20228;-82
2023/09/17 13:06:19;;;;;;;5.57;4.45;;;;;27.40;100622.00;;;;9908871;29;20218;-83
2023/09/17 13:11:21;;;;;;;6.72;4.68;;;;;27.50;100624.00;;;;9922795;29;20264;-82
2023/09/17 13:16:22;;;;;;;5.10;4.70;;;;;27.60;100625.00;;;;9939555;29;20230;-80
2023/09/17 13:21:24;;;;;;;6.00;4.88;;;;;27.30;100635.00;;;;9918179;29;20920;-81
2023/09/17 13:26:26;;;;;;;5.25;4.75;;;;;26.90;100636.00;;;;9941611;29;20225;-83
2023/09/17 13:31:27;;;;;;;3.88;3.58;;;;;26.80;100636.00;;;;9930611;29;20324;-84
2023/09/17 13:36:30;;;;;;;4.53;3.90;;;;;26.90;100635.00;;;;9964925;29;20229;-85
2023/09/17 13:41:32;;;;;;;5.13;3.90;;;;;27.00;100608.00;;;;9963383;29;20230;-82
2023/09/17 13:46:33;;;;;;;4.50;4.10;;;;;27.10;100610.00;;;;9916512;29;20310;-81
2023/09/17 13:51:34;;;;;;;4.95;4.15;;;;;27.20;100598.00;;;;9910801;29;20244;-83
2023/09/17 13:56:36;;;;;;;4.85;4.38;;;;;26.90;100602.00;;;;9922865;29;20391;-82
2023/09/17 14:01:40;;;;;;;5.22;4.47;;;;;26.80;100607.00;;;;9923577;29;20237;-82
2023/09/17 14:06:41;;;;;;;6.55;4.95;;;;;26.80;100601.00;;;;9912620;29;21841;-81
2023/09/17 14:11:43;;;;;;;5.65;4.75;;;;;26.70;100596.00;;;;9935043;29;21425;-84
2023/09/17 14:16:46;;;;;;;5.95;4.43;;;;;26.60;100596.00;;;;9899736;29;20213;-83
2023/09/17 14:21:47;;;;;;;7.07;4.47;;;;;26.50;100594.00;;;;9907198;29;20221;-82
2023/09/17 14:26:48;;;;;;;4.97;4.57;;;;;26.20;100596.00;;;;9889639;29;21773;-82
2023/09/17 14:31:49;;;;;;;5.15;4.75;;;;;26.00;100580.00;;;;9919644;29;22311;-81
2023/09/17 14:36:51;;;;;;;6.35;4.88;;;;;25.90;100574.00;;;;9935980;29;20996;-82
2023/09/17 14:41:55;;;;;;;6.75;5.03;;;;;26.00;100578.00;;;;9920930;29;20223;-81
2023/09/17 14:46:59;;;;;;;5.50;5.00;;;;;25.90;100575.00;;;;9928593;29;20321;-82
2023/09/17 14:52:01;;;;;;;6.38;5.55;;;;;25.90;100576.00;;;;9876835;29;22000;-82
2023/09/17 14:57:02;;;;;;;5.35;4.82;;;;;25.80;100575.00;;;;9909301;29;20225;-81
2023/09/17 15:02:03;;;;;;;5.80;5.22;;;;;25.70;100573.00;;;;9913231;29;20228;-82
2023/09/17 15:07:05;;;;;;;8.88;5.22;;;;;25.60;100554.00;;;;9922426;29;20308;-83
2023/09/17 15:12:06;;;;;;;5.70;5.13;;;;;25.40;100559.00;;;;9907148;29;20237;-81
2023/09/17 15:17:08;;;;;;;7.05;6.05;;;;;25.20;100541.00;;;;9907462;29;20382;-81
2023/09/17 15:22:09;;;;;;;9.63;6.18;;;;;25.10;100549.00;;;;9924540;29;20282;-82
2023/09/17 15:27:10;;;;;;;6.13;5.55;;;;;25.00;100547.00;;;;9919753;29;20217;-81
2023/09/17 15:32:12;;;;;;;7.40;6.30;;;;;24.90;100553.00;;;;9905163;29;20237;-82
2023/09/17 15:37:14;;;;;;;7.13;6.03;;;;;24.90;100551.00;;;;9933002;29;20895;-81
2023/09/17 15:42:15;;;;;;;9.95;6.82;;;;;24.90;100560.00;;;;9879105;29;20308;-81
2023/09/17 15:47:17;;;;;;;9.10;7.10;;;;;24.80;100556.00;;;;9904167;29;20560;-81
2023/09/17 15:52:18;;;;;;;9.18;6.80;;;;;24.60;100556.00;;;;9904125;29;20233;-78
2023/09/17 15:57:19;;;;;;;8.35;7.53;;;;;24.40;100550.00;;;;9907867;29;20324;-80
2023/09/17 16:02:22;;;;;;;9.43;7.65;;;;;24.40;100542.00;;;;9871939;29;20233;-79
2023/09/17 16:07:24;;;;;;;9.98;7.68;;;;;24.40;100527.00;;;;9906391;29;20228;-80
2023/09/17 16:12:26;;;;;;;8.32;7.50;;;;;24.20;100523.00;;;;9910024;29;21705;-79
2023/09/17 16:17:27;;;;;;;8.60;7.80;;;;;24.10;100519.00;;;;9914234;29;20227;-80
2023/09/17 16:22:28;;;;;;;9.20;8.27;;;;;24.00;100513.00;;;;9916251;29;20252;-80
2023/09/17 16:27:30;;;;;;;10.73;8.98;;;;;23.90;100515.00;;;;9932087;29;20225;-79
2023/09/17 16:32:31;;;;;;;9.45;8.45;;;;;23.80;100510.00;;;;9905660;29;20264;-79
2023/09/17 16:37:34;;;;;;;9.88;8.85;;;;;23.70;100505.00;;;;9903391;29;20221;-80
2023/09/17 16:42:35;;;;;;;10.48;9.57;;;;;23.60;100486.00;;;;9903480;29;20265;-80
2023/09/17 16:47:36;;;;;;;10.88;9.77;;;;;23.40;100481.00;;;;9894021;29;20221;-80
2023/09/17 16:52:38;;;;;;;10.10;9.20;;;;;23.30;100470.00;;;;9885172;29;20233;-80
2023/09/17 16:57:39;;;;;;;10.52;9.52;;;;;23.10;100449.00;;;;9974213;29;20221;-78
2023/09/17 17:02:41;;;;;;;11.45;10.43;;;;;23.00;100453.00;;;;9997996;29;20987;-79
2023/09/17 17:07:42;;;;;;;13.07;10.25;;;;;22.90;100449.00;;;;9979403;29;20205;-80
2023/09/17 17:12:44;;;;;;;11.07;9.98;;;;;22.80;100455.00;;;;10018167;29;20313;-79
2023/09/17 17:17:45;;;;;;;12.38;9.32;;;;;22.70;100449.00;;;;10004341;29;20217;-79
2023/09/17 17:22:48;;;;;;;12.35;10.00;;;;;22.50;100450.00;;;;9982561;29;21034;-80
2023/09/17 17:27:51;;;;;;;10.35;9.38;;;;;22.40;100436.00;;;;9980179;29;20217;-78
2023/09/17 17:32:52;;;;;;;10.65;9.55;;;;;22.30;100428.00;;;;9992881;29;20248;-80
2023/09/17 17:37:53;;;;;;;10.45;9.55;;;;;22.10;100430.00;;;;9993261;29;20240;-78
2023/09/17 17:42:55;;;;;;;11.77;9.65;;;;;21.90;100418.00;;;;9981839;29;20753;-78
2023/09/17 17:47:56;;;;;;;10.63;9.73;;;;;21.80;100410.00;;;;9985209;29;20214;-80
2023/09/17 17:52:58;;;;;;;12.48;11.18;;;;;21.60;100405.00;;;;9995223;29;20229;-80
2023/09/17 17:57:59;;;;;;;11.90;10.80;;;;;21.60;100398.00;;;;9979676;29;20297;-79
2023/09/17 18:03:00;;;;;;;12.38;10.82;;;;;21.50;100404.00;;;;9992405;29;20606;-79
2023/09/17 18:08:02;;;;;;;11.65;10.45;;;;;21.50;100396.00;;;;9989889;29;20209;-78
2023/09/17 18:13:04;;;;;;;11.45;10.15;;;;;21.40;100392.00;;;;10011492;29;20289;-78
2023/09/17 18:18:07;;;;;;;14.10;10.27;;;;;21.40;100383.00;;;;9974289;29;20213;-79
2023/09/17 18:23:08;;;;;;;10.93;9.82;;;;;21.30;100381.00;;;;9967059;29;20210;-77
2023/09/17 18:28:11;;;;;;;13.60;10.15;;;;;21.20;100380.00;;;;9983146;29;20301;-77
2023/09/17 18:33:12;;;;;;;11.18;10.00;;;;;21.10;100379.00;;;;9993789;29;20817;-78
2023/09/17 18:38:14;;;;;;;11.73;10.52;;;;;21.00;100385.00;;;;9990006;29;20288;-79
2023/09/17 18:43:15;;;;;;;10.48;9.57;;;;;21.00;100363.00;;;;9962299;29;20205;-79
2023/09/17 18:48:17;;;;;;;11.23;10.23;;;;;20.90;100346.00;;;;9980188;29;20740;-79
2023/09/17 18:53:19;;;;;;;11.43;10.00;;;;;20.90;100340.00;;;;9989821;29;20248;-77
2023/09/17 18:58:20;;;;;;;10.77;9.68;;;;;20.80;100339.00;;;;10008571;29;20222;-78
2023/09/17 19:03:21;;;;;;;10.68;9.40;;;;;20.80;100338.00;;;;9975210;29;20705;-79
2023/09/17 19:08:23;;;;;;;11.48;9.02;;;;;20.70;100336.00;;;;9985950;29;20601;-80
2023/09/17 19:13:25;;;;;;;10.82;9.35;;;;;20.60;100343.00;;;;9982903;29;20220;-78
2023/09/17 19:18:26;;;;;;;10.30;9.30;;;;;20.60;100344.00;;;;10008659;29;20248;-80
2023/09/17 19:23:27;;;;;;;11.82;9.63;;;;;20.50;100352.00;;;;9895705;29;20388;-83
2023/09/17 19:28:28;;;;;;;9.82;8.88;;;;;20.40;100348.00;;;;9923091;29;20217;-82
2023/09/17 19:33:31;;;;;;;9.85;8.65;;;;;20.30;100351.00;;;;9957079;29;20222;-81
2023/09/17 19:38:34;;;;;;;10.20;8.95;;;;;20.30;100342.00;;;;9964815;29;20653;-80
2023/09/17 19:43:37;;;;;;;10.90;9.90;;;;;20.20;100347.00;;;;9984334;29;20248;-80
2023/09/17 19:48:38;;;;;;;9.80;8.90;;;;;20.20;100346.00;;;;9986346;29;20223;-79
2023/09/17 19:53:41;;;;;;;10.82;9.52;;;;;20.10;100347.00;;;;9999380;29;20224;-80
2023/09/17 19:58:42;;;;;;;13.20;9.60;;;;;20.10;100346.00;;;;9990675;29;20261;-81
2023/09/17 20:03:44;;;;;;;11.27;10.05;;;;;20.00;100344.00;;;;9990126;29;20244;-80
2023/09/17 20:08:46;;;;;;;12.15;10.90;;;;;19.90;100331.00;;;;10000311;29;20212;-81
2023/09/17 20:13:47;;;;;;;12.63;11.32;;;;;19.80;100326.00;;;;9968405;29;20228;-79
2023/09/17 20:18:48;;;;;;;11.70;10.50;;;;;19.70;100319.00;;;;9973974;29;21018;-79
2023/09/17 20:23:50;;;;;;;11.60;10.40;;;;;19.70;100314.00;;;;9962059;29;20357;-79
2023/09/17 20:28:52;;;;;;;11.80;9.80;;;;;19.70;100309.00;;;;10008425;29;20281;-82
2023/09/17 20:33:53;;;;;;;11.90;10.32;;;;;19.80;100302.00;;;;10010144;29;20647;-80
2023/09/17 20:38:56;;;;;;;10.82;9.82;;;;;19.80;100288.00;;;;9989361;29;20213;-81
2023/09/17 20:43:58;;;;;;;13.20;10.50;;;;;19.80;100275.00;;;;9996517;29;20215;-82
2023/09/17 20:48:59;;;;;;;11.40;10.20;;;;;19.80;100261.00;;;;9959766;29;20225;-82
2023/09/17 20:54:02;;;;;;;12.10;10.32;;;;;19.80;100257.00;;;;9980299;29;20240;-83
2023/09/17 20:59:03;;;;;;;14.68;9.82;;;;;19.70;100249.00;;;;9982812;29;20676;-83
2023/09/17 21:04:05;;;;;;;11.77;10.52;;;;;19.70;100256.00;;;;9994290;29;20695;-80
2023/09/17 21:09:06;;;;;;;11.48;10.27;;;;;19.70;100262.00;;;;9999463;29;20629;-82
2023/09/17 21:14:08;;;;;;;13.32;10.10;;;;;19.70;100244.00;;;;9989749;29;20927;-83
2023/09/17 21:19:09;;;;;;;12.38;10.43;;;;;19.70;100243.00;;;;10016834;29;20216;-84
2023/09/17 21:24:10;;;;;;;11.23;9.88;;;;;19.70;100238.00;;;;9997105;29;20214;-82
2023/09/17 21:29:12;;;;;;;10.80;9.60;;;;;19.70;100245.00;;;;9986888;29;20278;-82
2023/09/17 21:34:13;;;;;;;13.70;9.50;;;;;19.70;100247.00;;;;9983504;29;20221;-81
2023/09/17 21:39:14;;;;;;;11.43;9.57;;;;;19.70;100245.00;;;;9971926;29;20991;-76
2023/09/17 21:44:16;;;;;;;11.23;9.85;;;;;19.70;100231.00;;;;9945654;29;20729;-78
2023/09/17 21:49:18;;;;;;;11.10;9.70;;;;;19.70;100216.00;;;;9960842;29;20241;-79
2023/09/17 21:54:19;;;;;;;13.45;9.63;;;;;19.70;100206.00;;;;9975207;29;20221;-78
2023/09/17 21:59:21;;;;;;;11.60;9.93;;;;;19.60;100195.00;;;;9990700;29;20226;-78
2023/09/17 22:04:22;;;;;;;15.10;9.77;;;;;19.60;100194.00;;;;9991134;29;20218;-78
2023/09/17 22:09:24;;;;;;;11.40;10.20;;;;;19.50;100197.00;;;;9995281;29;20244;-80
2023/09/17 22:14:25;;;;;;;10.77;9.73;;;;;19.50;100193.00;;;;9998624;29;20588;-81
2023/09/17 22:19:27;;;;;;;11.48;10.27;;;;;19.40;100187.00;;;;9981634;29;20282;-78
2023/09/17 22:24:29;;;;;;;10.88;9.77;;;;;19.40;100185.00;;;;9973853;29;20225;-79
2023/09/17 22:29:30;;;;;;;14.38;9.75;;;;;19.40;100184.00;;;;9992825;29;20910;-79
2023/09/17 22:34:31;;;;;;;13.52;9.73;;;;;19.40;100177.00;;;;9978803;29;20233;-79
2023/09/17 22:39:33;;;;;;;13.90;9.00;;;;;19.40;100165.00;;;;10012727;29;20221;-80
2023/09/17 22:44:34;;;;;;;12.07;9.43;;;;;19.30;100151.00;;;;10003784;29;20362;-80
2023/09/17 22:49:40;;;;;;;10.52;9.43;;;;;19.30;100142.00;;;;9997656;29;20332;-80
2023/09/17 22:54:42;;;;;;;12.63;10.07;;;;;19.20;100129.00;;;;9963458;29;20245;-80
2023/09/17 22:59:44;;;;;;;13.88;10.32;;;;;19.20;100115.00;;;;10025057;29;20284;-80
2023/09/17 23:04:45;;;;;;;15.88;10.32;;;;;19.20;100110.00;;;;9992850;29;20217;-80
2023/09/17 23:09:50;;;;;;;13.90;10.63;;;;;19.10;100105.00;;;;9982421;29;20331;-80
2023/09/17 23:14:51;;;;;;;11.23;9.52;;;;;19.10;100086.00;;;;9986416;29;20500;-80
2023/09/17 23:19:53;;;;;;;10.77;9.32;;;;;19.10;100087.00;;;;9988635;29;20202;-79
2023/09/17 23:24:55;;;;;;;10.50;9.23;;;;;19.10;100087.00;;;;9961010;29;20206;-80
2023/09/17 23:29:56;;;;;;;13.02;9.98;;;;;19.00;100062.00;;;;9979753;29;20231;-80
2023/09/17 23:34:57;;;;;;;12.25;9.43;;;;;19.00;100047.00;;;;9990093;29;20217;-79
2023/09/17 23:39:58;;;;;;;14.57;9.98;;;;;19.00;100053.00;;;;9980903;29;20462;-80
2023/09/17 23:45:00;;;;;;;13.18;9.68;;;;;19.00;100043.00;;;;9972392;29;20213;-80
2023/09/17 23:50:01;;;;;;;13.00;10.55;;;;;19.00;100031.00;;;;9962567;29;20234;-79
2023/09/17 23:55:04;;;;;;;15.27;10.68;;;;;19.00;99999.00;;;;9986246;29;20589;-80
